createdAt,value
2022-12-27T00:00:36.210Z,0.76
2022-12-27T00:03:02.861Z,0.80
2022-12-27T00:05:29.332Z,0.88
2022-12-27T00:07:56.315Z,1.03
2022-12-27T00:10:22.917Z,1.18
2022-12-27T00:12:49.406Z,1.26
2022-12-27T00:15:15.887Z,1.28
2022-12-27T00:17:42.456Z,1.22
2022-12-27T00:20:11.578Z,1.17
2022-12-27T00:22:39.619Z,1.22
2022-12-27T00:25:06.726Z,1.38
2022-12-27T00:27:33.174Z,1.35
2022-12-27T00:29:59.602Z,1.20
2022-12-27T00:32:26.267Z,1.07
2022-12-27T00:34:52.763Z,1.03
2022-12-27T00:37:21.742Z,0.98
2022-12-27T00:39:48.373Z,0.92
2022-12-27T00:42:14.880Z,0.90
2022-12-27T00:44:43.118Z,0.87
2022-12-27T00:47:10.593Z,0.87
2022-12-27T00:49:37.230Z,0.80
2022-12-27T00:52:03.941Z,0.79
2022-12-27T00:54:30.452Z,0.84
2022-12-27T00:56:56.943Z,0.99
2022-12-27T00:59:23.386Z,1.11
2022-12-27T01:01:50.016Z,1.15
2022-12-27T01:04:17.164Z,1.14
2022-12-27T01:06:44.185Z,1.24
2022-12-27T01:09:10.656Z,1.40
2022-12-27T01:11:37.191Z,1.44
2022-12-27T01:14:05.314Z,1.38
2022-12-27T01:16:33.176Z,1.42
2022-12-27T01:19:00.509Z,1.57
2022-12-27T01:21:30.456Z,1.67
2022-12-27T01:23:57.468Z,1.59
2022-12-27T01:26:24.611Z,1.54
2022-12-27T01:28:53.489Z,1.54
2022-12-27T01:31:24.858Z,1.42
2022-12-27T01:33:59.140Z,1.26
2022-12-27T01:36:28.086Z,1.29
2022-12-27T01:38:55.044Z,1.35
2022-12-27T01:41:45.483Z,1.45
2022-12-27T01:44:40.045Z,1.50
2022-12-27T01:47:17.379Z,1.63
2022-12-27T01:50:00.870Z,1.63
2022-12-27T01:52:46.554Z,1.72
2022-12-27T01:55:25.180Z,1.83
2022-12-27T01:57:58.119Z,1.92
2022-12-27T02:00:24.880Z,1.94
2022-12-27T02:02:52.886Z,1.95
2022-12-27T02:05:23.959Z,1.96
2022-12-27T02:08:21.630Z,1.98
2022-12-27T02:10:50.928Z,2.08
2022-12-27T02:13:19.157Z,2.06
2022-12-27T02:15:45.614Z,2.05
2022-12-27T02:18:12.309Z,1.96
2022-12-27T02:21:13.515Z,1.94
2022-12-27T02:24:43.420Z,1.98
2022-12-27T02:27:57.140Z,1.93
2022-12-27T02:30:24.227Z,2.00
2022-12-27T02:33:19.308Z,1.96
2022-12-27T02:35:57.978Z,1.93
2022-12-27T02:38:36.349Z,1.96
2022-12-27T02:41:27.064Z,2.06
2022-12-27T02:44:14.397Z,2.11
2022-12-27T02:47:00.234Z,2.14
2022-12-27T02:49:55.111Z,2.23
2022-12-27T02:52:55.281Z,2.09
2022-12-27T02:56:24.638Z,2.06
2022-12-27T02:59:23.079Z,1.98
2022-12-27T03:02:33.863Z,2.06
2022-12-27T03:05:19.868Z,2.05
2022-12-27T03:08:01.797Z,2.12
2022-12-27T03:11:03.487Z,2.12
2022-12-27T03:14:20.027Z,2.15
2022-12-27T03:16:56.121Z,2.21
2022-12-27T03:20:22.966Z,2.19
2022-12-27T03:23:12.257Z,2.29
2022-12-27T03:25:43.259Z,2.41
2022-12-27T03:28:39.920Z,2.47
2022-12-27T03:32:00.517Z,2.48
2022-12-27T03:34:39.930Z,2.39
2022-12-27T03:37:32.236Z,2.39
2022-12-27T03:40:15.282Z,2.43
2022-12-27T03:43:10.175Z,2.50
2022-12-27T03:46:16.745Z,2.55
2022-12-27T03:49:08.227Z,2.48
2022-12-27T03:52:11.699Z,2.47
2022-12-27T03:54:41.881Z,2.58
2022-12-27T03:57:17.352Z,2.58
2022-12-27T03:59:44.756Z,2.58
2022-12-27T04:02:11.853Z,2.60
2022-12-27T04:04:38.735Z,2.72
2022-12-27T04:07:06.351Z,2.72
2022-12-27T04:09:52.071Z,2.73
2022-12-27T04:12:37.147Z,2.79
2022-12-27T04:15:22.994Z,2.90
2022-12-27T04:18:08.332Z,2.87
2022-12-27T04:20:53.478Z,2.83
2022-12-27T04:23:38.839Z,2.79
2022-12-27T04:26:24.178Z,2.80
2022-12-27T04:29:09.616Z,2.80
2022-12-27T04:31:54.969Z,2.76
2022-12-27T04:34:40.341Z,2.78
2022-12-27T04:37:08.561Z,2.77
2022-12-27T04:39:35.709Z,2.77
2022-12-27T04:42:20.581Z,2.76
2022-12-27T04:45:13.224Z,2.65
2022-12-27T04:48:00.532Z,2.68
2022-12-27T04:50:49.801Z,2.70
2022-12-27T04:53:39.296Z,2.70
2022-12-27T04:56:07.115Z,2.67
2022-12-27T04:58:34.525Z,2.82
2022-12-27T05:01:23.437Z,2.86
2022-12-27T05:03:53.397Z,2.84
2022-12-27T05:06:20.492Z,2.89
2022-12-27T05:09:06.846Z,2.94
2022-12-27T05:11:52.076Z,2.83
2022-12-27T05:14:18.576Z,2.92
2022-12-27T05:16:45.457Z,2.92
2022-12-27T05:19:14.500Z,3.05
2022-12-27T05:22:03.925Z,3.17
2022-12-27T05:24:50.804Z,3.19
2022-12-27T05:27:18.618Z,3.14
2022-12-27T05:29:46.593Z,3.22
2022-12-27T05:32:13.921Z,3.28
2022-12-27T05:34:41.069Z,3.16
2022-12-27T05:37:08.333Z,3.08
2022-12-27T05:39:34.807Z,3.10
2022-12-27T05:42:01.340Z,3.18
2022-12-27T05:44:27.830Z,3.05
2022-12-27T05:46:55.631Z,3.08
2022-12-27T05:49:22.369Z,3.12
2022-12-27T05:51:48.823Z,3.16
2022-12-27T05:54:15.454Z,3.08
2022-12-27T05:56:42.017Z,3.06
2022-12-27T05:59:08.670Z,3.07
2022-12-27T06:01:35.342Z,3.16
2022-12-27T06:04:01.973Z,3.14
2022-12-27T06:06:28.928Z,3.08
2022-12-27T06:08:55.441Z,3.12
2022-12-27T06:11:22.058Z,3.13
2022-12-27T06:13:54.126Z,3.13
2022-12-27T06:16:22.636Z,3.18
2022-12-27T06:18:49.946Z,3.24
2022-12-27T06:21:20.957Z,3.27
2022-12-27T06:23:49.485Z,3.26
2022-12-27T06:26:23.575Z,3.26
2022-12-27T06:28:51.381Z,3.25
2022-12-27T06:31:20.148Z,3.19
2022-12-27T06:33:48.731Z,3.22
2022-12-27T06:36:20.059Z,3.18
2022-12-27T06:38:47.480Z,3.20
2022-12-27T06:41:17.395Z,3.23
2022-12-27T06:43:45.786Z,3.25
2022-12-27T06:46:18.163Z,3.16
2022-12-27T06:48:46.831Z,3.23
2022-12-27T06:51:15.303Z,3.20
2022-12-27T06:53:41.857Z,3.20
2022-12-27T06:56:18.583Z,3.19
2022-12-27T06:58:47.724Z,3.26
2022-12-27T07:01:24.445Z,3.16
2022-12-27T07:03:57.810Z,3.25
2022-12-27T07:06:27.604Z,3.34
2022-12-27T07:08:55.304Z,3.39
2022-12-27T07:11:23.781Z,3.43
2022-12-27T07:13:54.957Z,3.41
2022-12-27T07:16:25.040Z,3.49
2022-12-27T07:18:52.439Z,3.46
2022-12-27T07:21:24.501Z,3.45
2022-12-27T07:23:51.527Z,3.43
2022-12-27T07:26:26.769Z,3.47
2022-12-27T07:28:56.165Z,3.49
2022-12-27T07:31:26.539Z,3.46
2022-12-27T07:33:53.420Z,3.36
2022-12-27T07:36:29.298Z,3.36
2022-12-27T07:38:55.999Z,3.48
2022-12-27T07:41:23.048Z,3.46
2022-12-27T07:43:49.635Z,3.50
2022-12-27T07:46:25.480Z,3.54
2022-12-27T07:48:57.418Z,3.61
2022-12-27T07:51:26.781Z,3.65
2022-12-27T07:53:54.499Z,3.68
2022-12-27T07:56:26.523Z,3.67
2022-12-27T07:58:57.552Z,3.60
2022-12-27T08:01:28.068Z,3.50
2022-12-27T08:03:55.690Z,3.57
2022-12-27T08:06:29.737Z,3.60
2022-12-27T08:08:59.586Z,3.70
2022-12-27T08:11:29.987Z,3.76
2022-12-27T08:13:56.656Z,3.77
2022-12-27T08:16:26.397Z,3.82
2022-12-27T08:18:53.213Z,3.68
2022-12-27T08:21:19.778Z,3.73
2022-12-27T08:23:46.371Z,3.81
2022-12-27T08:26:12.848Z,3.84
2022-12-27T08:28:39.635Z,3.87
2022-12-27T08:31:09.216Z,3.98
2022-12-27T08:33:37.328Z,3.93
2022-12-27T08:36:36.832Z,3.99
2022-12-27T08:38:57.251Z,4.15
2022-12-27T08:41:24.066Z,4.24
2022-12-27T08:43:50.688Z,4.18
2022-12-27T08:46:19.254Z,4.07
2022-12-27T08:48:50.373Z,3.96
2022-12-27T08:51:28.408Z,3.96
2022-12-27T08:53:59.592Z,4.06
2022-12-27T08:56:26.338Z,4.20
2022-12-27T08:58:52.975Z,4.30
2022-12-27T09:01:19.905Z,4.33
2022-12-27T09:03:46.617Z,4.35
2022-12-27T09:06:18.721Z,4.31
2022-12-27T09:08:48.284Z,4.36
2022-12-27T09:11:27.992Z,4.18
2022-12-27T09:13:55.212Z,4.24
2022-12-27T09:16:27.482Z,4.34
2022-12-27T09:18:56.268Z,4.39
2022-12-27T09:21:26.196Z,4.49
2022-12-27T09:23:52.873Z,4.51
2022-12-27T09:26:23.407Z,4.58
2022-12-27T09:28:51.290Z,4.63
2022-12-27T09:31:19.937Z,4.66
2022-12-27T09:33:46.904Z,4.67
2022-12-27T09:36:20.536Z,4.77
2022-12-27T09:38:48.575Z,4.83
2022-12-27T09:44:58.411Z,4.86
2022-12-27T09:47:56.833Z,4.91
2022-12-27T09:50:30.772Z,5.02
2022-12-27T09:53:03.237Z,5.00
2022-12-27T09:55:41.922Z,5.02
2022-12-27T09:58:49.373Z,4.92
2022-12-27T10:01:42.407Z,4.95
2022-12-27T10:04:13.990Z,5.09
2022-12-27T10:06:49.305Z,5.10
2022-12-27T10:09:56.984Z,5.21
2022-12-27T10:13:01.169Z,5.26
2022-12-27T10:15:33.362Z,5.27
2022-12-27T10:18:05.814Z,5.39
2022-12-27T10:21:17.465Z,5.35
2022-12-27T10:23:59.487Z,5.29
2022-12-27T10:26:27.002Z,5.57
2022-12-27T10:29:11.585Z,5.61
2022-12-27T10:31:43.041Z,5.66
2022-12-27T10:34:16.570Z,5.75
2022-12-27T10:36:45.297Z,5.78
2022-12-27T10:39:28.537Z,5.73
2022-12-27T10:42:16.853Z,5.81
2022-12-27T10:44:43.510Z,5.88
2022-12-27T10:47:11.195Z,5.92
2022-12-27T10:49:42.337Z,6.03
2022-12-27T10:52:24.191Z,6.02
2022-12-27T10:54:56.143Z,6.09
2022-12-27T10:57:29.166Z,6.02
2022-12-27T11:00:16.322Z,5.99
2022-12-27T11:02:55.973Z,5.73
2022-12-27T11:05:32.386Z,5.85
2022-12-27T11:08:01.228Z,5.93
2022-12-27T11:10:33.216Z,6.02
2022-12-27T11:13:07.313Z,6.03
2022-12-27T11:15:38.517Z,6.10
2022-12-27T11:18:17.083Z,6.10
2022-12-27T11:20:52.908Z,6.10
2022-12-27T11:23:23.979Z,6.09
2022-12-27T11:26:28.316Z,5.98
2022-12-27T11:29:00.886Z,6.07
2022-12-27T11:31:34.304Z,6.16
2022-12-27T11:34:08.632Z,6.18
2022-12-27T11:36:43.925Z,6.25
2022-12-27T11:39:37.403Z,6.20
2022-12-27T11:42:17.797Z,6.30
2022-12-27T11:45:14.028Z,6.33
2022-12-27T11:48:29.258Z,6.35
2022-12-27T11:51:16.375Z,6.35
2022-12-27T11:54:05.851Z,5.96
2022-12-27T11:56:43.557Z,6.05
2022-12-27T11:59:52.886Z,6.00
2022-12-27T12:03:09.319Z,6.04
2022-12-27T12:06:02.141Z,6.04
2022-12-27T12:09:17.959Z,5.95
2022-12-27T12:12:37.558Z,6.00
2022-12-27T12:15:48.136Z,6.07
2022-12-27T12:18:45.530Z,6.09
2022-12-27T12:21:44.304Z,6.08
2022-12-27T12:24:47.606Z,6.22
2022-12-27T12:27:38.406Z,6.25
2022-12-27T12:30:35.867Z,6.38
2022-12-27T12:33:36.401Z,6.29
2022-12-27T12:37:04.418Z,6.25
2022-12-27T12:40:27.641Z,6.11
2022-12-27T12:43:23.332Z,6.19
2022-12-27T12:46:38.819Z,6.22
2022-12-27T12:49:20.078Z,6.27
2022-12-27T12:52:18.769Z,6.38
2022-12-27T12:55:39.213Z,6.38
2022-12-27T12:58:28.705Z,6.42
2022-12-27T13:01:14.088Z,6.51
2022-12-27T13:04:07.088Z,6.43
2022-12-27T13:07:14.804Z,6.33
2022-12-27T13:10:28.499Z,6.33
2022-12-27T13:13:12.252Z,6.38
2022-12-27T13:16:11.698Z,6.33
2022-12-27T13:19:13.135Z,6.36
2022-12-27T13:22:17.047Z,6.30
2022-12-27T13:25:03.732Z,6.27
2022-12-27T13:27:58.259Z,6.23
2022-12-27T13:30:39.219Z,6.29
2022-12-27T13:33:15.150Z,6.30
2022-12-27T13:35:47.331Z,6.29
2022-12-27T13:38:22.643Z,6.40
2022-12-27T13:41:30.445Z,6.46
2022-12-27T13:44:22.389Z,6.53
2022-12-27T13:47:36.761Z,6.55
2022-12-27T13:50:50.882Z,6.63
2022-12-27T13:53:51.641Z,6.61
2022-12-27T13:56:53.914Z,6.70
2022-12-27T13:59:55.249Z,6.78
2022-12-27T14:02:37.432Z,6.73
2022-12-27T14:05:41.292Z,6.66
2022-12-27T14:08:10.562Z,6.75
2022-12-27T14:10:44.207Z,6.83
2022-12-27T14:13:12.810Z,6.88
2022-12-27T14:16:33.431Z,6.75
2022-12-27T14:19:30.035Z,6.72
2022-12-27T14:22:35.797Z,6.66
2022-12-27T14:25:34.424Z,6.58
2022-12-27T14:28:59.901Z,6.56
2022-12-27T14:32:27.371Z,6.54
2022-12-27T14:35:36.910Z,6.61
2022-12-27T14:38:33.885Z,6.58
2022-12-27T14:41:47.209Z,6.49
2022-12-27T14:44:52.355Z,6.46
2022-12-27T14:48:17.935Z,6.32
2022-12-27T14:51:59.809Z,6.13
2022-12-27T14:55:00.567Z,6.14
2022-12-27T14:58:04.886Z,6.21
2022-12-27T15:01:00.010Z,6.20
2022-12-27T15:03:54.439Z,6.31
2022-12-27T15:06:58.517Z,6.23
2022-12-27T15:09:43.262Z,6.22
2022-12-27T15:12:57.346Z,6.12
2022-12-27T15:15:43.898Z,6.10
2022-12-27T15:18:38.099Z,5.91
2022-12-27T15:21:37.068Z,5.86
2022-12-27T15:24:50.440Z,5.66
2022-12-27T15:27:31.112Z,5.69
2022-12-27T15:30:05.463Z,5.68
2022-12-27T15:32:53.210Z,5.60
2022-12-27T15:35:35.678Z,5.44
2022-12-27T15:38:26.710Z,5.41
2022-12-27T15:41:08.571Z,5.33
2022-12-27T15:43:52.331Z,5.30
2022-12-27T15:46:49.928Z,5.30
2022-12-27T15:49:41.155Z,4.89
2022-12-27T15:52:22.611Z,5.12
2022-12-27T15:55:34.276Z,5.15
2022-12-27T15:58:18.275Z,4.95
2022-12-27T16:01:06.339Z,5.05
2022-12-27T16:03:38.193Z,5.07
2022-12-27T16:06:07.687Z,5.07
2022-12-27T16:08:40.236Z,5.03
2022-12-27T16:11:13.758Z,4.91
2022-12-27T16:13:45.426Z,4.91
2022-12-27T16:16:38.717Z,4.81
2022-12-27T16:19:55.432Z,4.67
2022-12-27T16:22:34.095Z,4.61
2022-12-27T16:25:28.650Z,4.57
2022-12-27T16:28:13.418Z,4.56
2022-12-27T16:30:47.628Z,4.62
2022-12-27T16:33:26.044Z,4.51
2022-12-27T16:36:13.886Z,4.47
2022-12-27T16:39:14.344Z,4.44
2022-12-27T16:41:49.956Z,4.31
2022-12-27T16:44:25.523Z,4.12
2022-12-27T16:47:31.430Z,4.11
2022-12-27T16:50:25.305Z,4.10
2022-12-27T16:53:19.609Z,4.05
2022-12-27T16:56:20.244Z,4.08
2022-12-27T16:58:46.952Z,3.90
2022-12-27T17:01:25.937Z,3.88
2022-12-27T17:03:54.935Z,3.90
2022-12-27T17:06:32.043Z,3.87
2022-12-27T17:09:08.346Z,3.83
2022-12-27T17:11:41.284Z,3.94
2022-12-27T17:14:25.789Z,3.92
2022-12-27T17:16:58.707Z,3.87
2022-12-27T17:19:44.126Z,3.91
2022-12-27T17:22:16.787Z,3.88
2022-12-27T17:24:46.185Z,3.83
2022-12-27T17:27:59.750Z,3.80
2022-12-27T17:31:22.582Z,3.65
2022-12-27T17:34:19.838Z,3.63
2022-12-27T17:37:16.720Z,3.57
2022-12-27T17:39:57.461Z,3.35
2022-12-27T17:43:11.936Z,3.38
2022-12-27T17:46:23.882Z,3.21
2022-12-27T17:48:55.903Z,3.26
2022-12-27T17:51:28.727Z,3.17
2022-12-27T17:54:15.390Z,3.13
2022-12-27T17:57:17.356Z,2.96
2022-12-27T17:59:51.817Z,2.99
2022-12-27T18:02:38.443Z,3.00
2022-12-27T18:05:13.339Z,3.00
2022-12-27T18:07:43.629Z,2.98
2022-12-27T18:10:13.128Z,3.02
2022-12-27T18:12:43.200Z,3.06
2022-12-27T18:15:20.561Z,3.00
2022-12-27T18:17:55.388Z,2.80
2022-12-27T18:20:27.900Z,2.63
2022-12-27T18:23:00.381Z,2.54
2022-12-27T18:25:34.070Z,2.44
2022-12-27T18:28:33.387Z,2.51
2022-12-27T18:31:25.404Z,2.45
2022-12-27T18:34:24.233Z,2.38
2022-12-27T18:37:03.472Z,2.35
2022-12-27T18:39:40.078Z,2.40
2022-12-27T18:42:35.366Z,2.04
2022-12-27T18:45:44.704Z,2.20
2022-12-27T18:48:14.572Z,2.29
2022-12-27T18:50:52.033Z,2.22
2022-12-27T18:53:29.671Z,2.10
2022-12-27T18:56:01.683Z,2.14
2022-12-27T18:58:28.561Z,2.16
2022-12-27T19:01:41.939Z,2.12
2022-12-27T19:04:14.401Z,2.17
2022-12-27T19:06:50.785Z,2.23
2022-12-27T19:09:20.611Z,2.14
2022-12-27T19:12:04.976Z,1.95
2022-12-27T19:14:42.785Z,1.94
2022-12-27T19:17:25.038Z,1.87
2022-12-27T19:19:57.198Z,1.87
2022-12-27T19:22:42.338Z,1.77
2022-12-27T19:25:38.093Z,1.75
2022-12-27T19:28:10.252Z,1.79
2022-12-27T19:30:44.198Z,1.79
2022-12-27T19:33:25.604Z,1.70
2022-12-27T19:35:53.971Z,1.81
2022-12-27T19:38:28.468Z,1.74
2022-12-27T19:41:03.666Z,1.62
2022-12-27T19:43:38.089Z,1.59
2022-12-27T19:46:05.077Z,1.61
2022-12-27T19:48:31.971Z,1.59
2022-12-27T19:50:59.705Z,1.71
2022-12-27T19:53:34.515Z,1.75
2022-12-27T19:56:02.865Z,1.78
2022-12-27T19:58:32.569Z,1.89
2022-12-27T20:00:59.603Z,1.83
2022-12-27T20:03:26.555Z,1.87
2022-12-27T20:06:14.079Z,1.85
2022-12-27T20:08:49.581Z,1.85
2022-12-27T20:11:22.520Z,1.84
2022-12-27T20:13:50.024Z,1.88
2022-12-27T20:16:19.792Z,1.87
2022-12-27T20:18:47.096Z,1.88
2022-12-27T20:21:17.517Z,1.83
2022-12-27T20:23:45.229Z,1.91
2022-12-27T20:26:16.391Z,1.84
2022-12-27T20:28:43.151Z,1.79
2022-12-27T20:31:14.158Z,1.79
2022-12-27T20:33:40.989Z,1.79
2022-12-27T20:36:09.041Z,1.78
2022-12-27T20:38:39.077Z,1.79
2022-12-27T20:41:08.760Z,1.83
2022-12-27T20:43:36.362Z,1.82
2022-12-27T20:46:13.265Z,1.88
2022-12-27T20:48:43.257Z,1.98
2022-12-27T20:51:14.359Z,2.09
2022-12-27T20:53:40.938Z,2.23
2022-12-27T20:56:09.043Z,2.33
2022-12-27T20:58:35.882Z,2.42
2022-12-27T21:01:25.958Z,2.48
2022-12-27T21:03:55.980Z,2.48
2022-12-27T21:06:28.037Z,2.48
2022-12-27T21:08:57.528Z,2.46
2022-12-27T21:11:31.897Z,2.50
2022-12-27T21:14:00.913Z,2.43
2022-12-27T21:16:31.420Z,2.41
2022-12-27T21:19:02.734Z,2.41
2022-12-27T21:21:29.647Z,2.35
2022-12-27T21:23:59.268Z,2.33
2022-12-27T21:26:30.218Z,2.35
2022-12-27T21:29:00.640Z,2.17
2022-12-27T21:31:27.979Z,2.01
2022-12-27T21:33:54.569Z,2.00
2022-12-27T21:36:26.808Z,2.00
2022-12-27T21:38:55.160Z,2.05
2022-12-27T21:41:26.272Z,2.04
2022-12-27T21:43:53.339Z,2.03
2022-12-27T21:46:23.784Z,1.97
2022-12-27T21:48:59.422Z,1.90
2022-12-27T21:51:27.994Z,1.98
2022-12-27T21:53:55.295Z,1.96
2022-12-27T21:56:22.966Z,1.93
2022-12-27T21:58:50.463Z,1.91
2022-12-27T22:01:21.083Z,1.94
2022-12-27T22:03:51.529Z,1.95
2022-12-27T22:06:24.552Z,1.98
2022-12-27T22:08:54.805Z,2.01
2022-12-27T22:11:23.460Z,2.03
2022-12-27T22:13:50.553Z,2.00
2022-12-27T22:16:30.136Z,1.91
2022-12-27T22:18:57.019Z,1.96
2022-12-27T22:21:33.331Z,1.90
2022-12-27T22:24:02.463Z,1.95
2022-12-27T22:26:34.378Z,1.91
2022-12-27T22:29:02.292Z,1.96
2022-12-27T22:31:35.223Z,1.89
2022-12-27T22:34:03.444Z,1.88
2022-12-27T22:36:30.633Z,1.85
2022-12-27T22:38:59.320Z,1.99
2022-12-27T22:41:32.473Z,2.06
2022-12-27T22:44:10.228Z,2.03
2022-12-27T22:47:15.320Z,2.01
2022-12-27T22:49:23.533Z,2.08
2022-12-27T22:51:50.054Z,2.12
2022-12-27T22:54:16.787Z,2.14
2022-12-27T22:56:44.050Z,2.23
2022-12-27T22:59:13.998Z,2.35
2022-12-27T23:01:43.598Z,2.30
2022-12-27T23:04:13.449Z,2.36
2022-12-27T23:06:41.153Z,2.33
2022-12-27T23:09:08.577Z,2.50
2022-12-27T23:11:40.791Z,2.43
2022-12-27T23:14:13.525Z,2.40
2022-12-27T23:16:49.432Z,2.44
2022-12-27T23:19:20.031Z,2.34
2022-12-27T23:21:47.871Z,2.39
2022-12-27T23:24:14.808Z,2.37
2022-12-27T23:26:42.132Z,2.43
2022-12-27T23:29:10.953Z,2.43
2022-12-27T23:31:55.375Z,2.49
2022-12-27T23:34:27.646Z,2.60
2022-12-27T23:36:55.160Z,2.71
2022-12-27T23:39:21.681Z,2.80
2022-12-27T23:41:48.129Z,2.81
2022-12-27T23:44:14.599Z,2.73
2022-12-27T23:46:41.218Z,2.79
2022-12-27T23:49:08.234Z,2.80
2022-12-27T23:51:34.741Z,2.79
2022-12-27T23:54:01.232Z,2.76
2022-12-27T23:56:33.707Z,2.68
2022-12-27T23:59:02.177Z,2.82
